CheckWX is a tool to help pilots better visualize weather data.  It is not intended as a substitute for an official pre-flight weather briefing.

21:32:57 UTC

KFFT METAR
Capital City Airport Airport
Frankfort, KY, USA
Current

40 mins ago

KFFT 102053Z AUTO 29012G20KT 10SM CLR 30/19 A2987 RMK AO2 PK WND 28026/2029 SLP106 T03000189 53013
Observed
Jul-10 @ 20:53 UTC
Wind
  • 290° at 12 KTS
  • Gusting to 20 KTS
Visibility
10 SM
Flight Rules
VFR
Cloud Levels
  • Clear skies
Temperature
30°C / 86°F
Dewpoint
19°C / 66°F
Humidity
52%
Altimeter
29.87" Hg
Pressure
1011.52 hPa
Previous

2 hours ago

KFFT 101953Z AUTO 27011G26KT 10SM SCT055 31/20 A2985 RMK AO2 PK WND 27026/1905 SLP100 T03060200
Observed
Jul-10 @ 19:53 UTC
Wind
  • 270° at 11 KTS
  • Gusting to 26 KTS
Visibility
10 SM
Flight Rules
VFR
Cloud Levels
  • Scattered at 5,500' AGL
Temperature
31°C / 88°F
Dewpoint
20°C / 68°F
Humidity
52%
Altimeter
29.85" Hg
Pressure
1010.82 hPa
Previous

3 hours ago

KFFT 101853Z AUTO 26013G24KT 220V300 10SM SCT040 SCT050 31/22 A2984 RMK AO2 PK WND 29026/1826 SLP094 T03110217
Observed
Jul-10 @ 18:53 UTC
Wind
  • 260° at 13 KTS
  • Gusting to 24 KTS
Visibility
10 SM
Flight Rules
VFR
Cloud Levels
  • Scattered at 4,000' AGL
  • Scattered at 5,000' AGL
Temperature
31°C / 88°F
Dewpoint
22°C / 72°F
Humidity
59%
Altimeter
29.84" Hg
Pressure
1010.52 hPa